Flight Track Log - Related Links

Times and Time Zones

All times are in EST time to prevent confusion due to time zone crossing. See the NASA817 flight status page for this flight to view local times or setup timezone preferences in your user account.

Time Position Orientation Groundspeed Altitude Reporting Facility
EST Latitude Longitude Course Direction KTS MPH feet Rate Location/Type
Thu 01:09:22 PM 34.6111 -118.0744 North 1 1 2,500  Level Los Angeles Center
Thu 01:11:00 PM 34.6294 -118.0845 North  Level Estimated
Thu 01:11:26 PM 34.6122 -118.0733 39° Northeast 2 2 2,500  Level Los Angeles Center
Thu 01:12:28 PM 34.6167 -118.0742 351° North 8 9 2,500  Level Los Angeles Center
Thu 01:13:30 PM 34.6236 -118.0742 360° North 16 18 2,500  Level Los Angeles Center
Thu 01:14:32 PM 34.6289 -118.0744 358° North 19 22 2,500  Level Los Angeles Center
Thu 01:15:35 PM 34.6314 -118.0756 340° North 14 16 2,500  Level Los Angeles Center
Thu 01:16:36 PM 34.6311 -118.0750 121° Southeast 7 8 2,500  Level Los Angeles Center
Thu 01:17:38 PM 34.6303 -118.0744 151° Southeast 3 3 2,500  Level Los Angeles Center
Thu 01:18:40 PM 34.6306 -118.0747 321° Northwest 1 1 2,500  Level Los Angeles Center
Thu 01:21:47 PM 34.6308 -118.0750 321° Northwest 1 1 2,500  Level Los Angeles Center
Thu 01:25:55 PM 34.6311 -118.0769 280° West 2 2 2,500 232 Level Los Angeles Center
Thu 01:26:57 PM 34.6336 -118.1372 273° West 113 130 3,700 1,104 Climbing Los Angeles Center
Thu 01:28:00 PM 34.6908 -118.1522 348° North 203 234 4,800 1,584 Climbing Los Angeles Center
Thu 01:29:02 PM 34.7400 -118.0831 49° Northeast 251 289 7,000 1,935 Climbing Los Angeles Center
Thu 01:30:04 PM 34.7111 -117.9931 111° Southeast 275 316 8,800 1,597 Climbing Los Angeles Center
Thu 01:31:06 PM 34.6756 -117.9011 115° Southeast 295 339 10,300 1,645 Climbing Los Angeles Center
Thu 01:32:08 PM 34.6836 -117.7575 86° East 355 409 12,200 1,694 Climbing Los Angeles Center
Thu 01:33:10 PM 34.6975 -117.6269 83° East 388 447 13,800 1,403 Climbing Los Angeles Center
Thu 01:34:12 PM 34.7064 -117.4944 85° East 399 459 15,100 720 Climbing Los Angeles Center
Thu 01:35:15 PM 34.7256 -117.3594 80° East 409 471 15,300 672 Climbing Los Angeles Center
Thu 01:36:17 PM 34.7692 -117.2294 68° East 417 480 16,500 1,548 Climbing Los Angeles Center
Thu 01:37:19 PM 34.8172 -117.0667 70° East 431 496 18,500 1,645 Climbing Los Angeles Center
Thu 01:38:21 PM 34.8578 -116.9286 70° East 433 498 19,900 1,355 Climbing Los Angeles Center
Thu 01:39:23 PM 34.9000 -116.7847 70° East 449 517 21,300 1,548 Climbing Los Angeles Center
Thu 01:40:25 PM 34.9428 -116.6392 70° East 457 526 23,100 1,680 Climbing Los Angeles Center
Thu 01:41:28 PM 35.0111 -116.5106 57° Northeast 468 539 24,800 1,440 Climbing Los Angeles Center
Thu 01:42:30 PM 35.1200 -116.3753 45° Northeast 467 537 26,100 968 Climbing Los Angeles Center
Thu 01:43:32 PM 35.2158 -116.2594 45° Northeast 478 550 26,800 677 Climbing Los Angeles Center
Thu 01:44:34 PM 35.3119 -116.1358 46° Northeast 494 568 27,500 823 Climbing Los Angeles Center
Thu 01:45:36 PM 35.4111 -116.0114 46° Northeast 506 582 28,500 968 Climbing Los Angeles Center
Thu 01:46:38 PM 35.5111 -115.8839 46° Northeast 514 592 29,500 1,056 Climbing Los Angeles Center
Thu 01:47:41 PM 35.6331 -115.7317 45° Northeast 515 593 30,700 726 Climbing Los Angeles Center
Thu 01:48:42 PM 35.7336 -115.6050 46° Northeast 515 593 31,000 146 Climbing Los Angeles Center
Thu 01:49:44 PM 35.8358 -115.4756 46° Northeast 524 603 31,000  Level Los Angeles Center
Thu 01:50:47 PM 35.9375 -115.3442 46° Northeast 531 611 31,000  Level Los Angeles Center
Thu 01:51:49 PM 36.0381 -115.2136 46° Northeast 531 611 31,000  Level Los Angeles Center
Thu 01:52:51 PM 36.1106 -115.0272 64° Northeast 519 597 31,000  Level Los Angeles Center
Thu 01:53:53 PM 36.1489 -114.8633 74° East 504 580 31,000  Level Los Angeles Center
Thu 01:54:56 PM 36.1911 -114.6986 72° East 505 581 31,000  Level Los Angeles Center
Thu 01:55:58 PM 36.2314 -114.5333 73° East 503 579 31,000  Level Los Angeles Center
Thu 01:57:00 PM 36.2708 -114.3683 73° East 502 578 31,000  Level Los Angeles Center
Thu 01:58:02 PM 36.3175 -114.1689 74° East 502 578 31,000 97 Level Los Angeles Center
Thu 01:59:04 PM 36.3606 -114.0050 72° East 502 578 31,200 387 Climbing Los Angeles Center
Thu 02:00:06 PM 36.4164 -113.8442 67° East 506 582 31,800 677 Climbing Los Angeles Center
Thu 02:01:08 PM 36.4706 -113.6814 67° East 510 587 32,600 823 Climbing Los Angeles Center
Thu 02:02:10 PM 36.5294 -113.5058 67° East 512 589 33,500 672 Climbing Los Angeles Center
Thu 02:03:13 PM 36.5836 -113.3436 67° East 511 588 34,000 384 Climbing Los Angeles Center
Thu 02:04:15 PM 36.6369 -113.1817 68° East 510 587 34,300 484 Climbing Los Angeles Center
Thu 02:05:17 PM 36.7003 -112.9889 68° East 506 582 35,000 339 Climbing Los Angeles Center
Thu 02:06:19 PM 36.7522 -112.8328 67° East 496 571 35,000  Level Los Angeles Center
Thu 02:07:21 PM 36.8033 -112.6747 68° East 494 568 35,000  Level Los Angeles Center
Thu 02:08:23 PM 36.8539 -112.5186 68° East 489 563 35,000  Level Los Angeles Center
Thu 02:09:25 PM 36.9042 -112.3608 68° East 491 565 35,000  Level Los Angeles Center
Thu 02:10:28 PM 36.9628 -112.1803 68° East 474 545 35,000  Level Los Angeles Center
Thu 02:11:30 PM 37.0133 -112.0381 66° East 454 522 35,000  Level Los Angeles Center
Thu 02:12:32 PM 37.0525 -111.9011 70° East 426 490 35,000  Level Los Angeles Center
Thu 02:13:34 PM 37.0861 -111.7656 73° East 412 474 35,000  Level Los Angeles Center
Thu 02:14:36 PM 37.1211 -111.6275 72° East 415 478 35,000  Level Los Angeles Center
Thu 02:15:38 PM 37.0769 -111.5117 116° Southeast 380 437 35,000  Level Los Angeles Center
Thu 02:16:40 PM 36.9756 -111.4603 158° South 336 387 35,000  Level Los Angeles Center
Thu 02:17:43 PM 36.8881 -111.4397 169° South 324 373 35,000  Level Los Angeles Center
Thu 02:18:45 PM 36.8014 -111.4192 169° South 318 366 35,000  Level Los Angeles Center
Thu 02:19:47 PM 36.7153 -111.4003 170° South 316 364 35,000  Level Los Angeles Center
Thu 02:20:49 PM 36.6292 -111.3828 171° South 314 361 35,000  Level Los Angeles Center
Thu 02:21:51 PM 36.5422 -111.3628 170° South 316 364 35,000  Level Los Angeles Center
Thu 02:22:53 PM 36.4344 -111.3392 170° South 324 373 35,000  Level Los Angeles Center
Thu 02:23:55 PM 36.3467 -111.3189 169° South 323 372 35,000  Level Los Angeles Center
Thu 02:24:57 PM 36.2589 -111.3019 171° South 320 368 35,000  Level Los Angeles Center
Thu 02:26:00 PM 36.1708 -111.2853 171° South 320 368 35,000  Level Los Angeles Center
Thu 02:27:02 PM 36.0828 -111.2736 174° South 319 367 35,000 -871 Level Los Angeles Center
Thu 02:28:04 PM 36.0250 -111.1381 118° Southeast 369 425 33,200 -1,548 Descending Los Angeles Center
Thu 02:29:06 PM 35.9778 -111.0122 115° Southeast 396 456 31,800 -1,422 Descending Los Angeles Center
Thu 02:30:19 PM 35.8706 -111.0444 194° South 360 414 30,000 -1,733 Descending Denver Center
Thu 02:31:21 PM 35.9050 -111.1578 291° West 377 434 27,900 -2,129 Descending Denver Center
Thu 02:32:23 PM 36.0033 -111.2319 329° Northwest 407 468 25,600 -1,403 Descending Denver Center
Thu 02:33:25 PM 36.1147 -111.2656 346° North 413 475 25,000 -290 Descending Denver Center
Thu 02:34:27 PM 36.2125 -111.2875 350° North 369 425 25,000  Level Denver Center
Thu 02:35:29 PM 36.3239 -111.3158 348° North 345 397 25,000  Level Denver Center
Thu 02:36:31 PM 36.4192 -111.3344 351° North 346 398 25,000  Level Denver Center
Thu 02:37:33 PM 36.5103 -111.3553 350° North 339 390 25,000  Level Denver Center
Thu 02:38:35 PM 36.5997 -111.3744 350° North 330 380 25,000  Level Denver Center
Thu 02:39:37 PM 36.6922 -111.3947 350° North 335 386 25,000  Level Denver Center
Thu 02:40:51 PM 36.8014 -111.4181 350° North 334 384 25,000  Level Denver Center
Thu 02:41:54 PM 36.9083 -111.4392 351° North 327 376 25,000 -384 Level Denver Center
Thu 02:42:56 PM 36.9981 -111.4347 North 339 390 24,200 -1,210 Descending Denver Center
Thu 02:43:58 PM 37.0650 -111.3422 48° Northeast 360 414 22,500 -1,597 Descending Denver Center
Thu 02:45:00 PM 37.1558 -111.3044 18° North 376 433 20,900 -1,210 Descending Denver Center
Thu 02:46:02 PM 37.1800 -111.3900 290° West 296 341 20,000 -435 Descending Denver Center
Thu 02:47:04 PM 37.1219 -111.4503 220° Southwest 230 265 20,000  Level Denver Center
Thu 02:48:06 PM 37.0611 -111.4725 196° South 230 265 20,000  Level Denver Center
Thu 02:49:08 PM 36.9944 -111.4611 172° South 238 274 20,000  Level Denver Center
Thu 02:50:09 PM 36.9281 -111.4478 171° South 241 277 20,000  Level Denver Center
Thu 02:51:11 PM 36.8636 -111.4322 169° South 240 276 20,000  Level Denver Center
Thu 02:52:13 PM 36.7983 -111.4167 169° South 237 273 20,000  Level Denver Center
Thu 02:53:15 PM 36.7167 -111.3992 170° South 245 282 20,000  Level Denver Center
Thu 02:54:17 PM 36.6475 -111.3828 169° South 249 287 20,000  Level Denver Center
Thu 02:55:19 PM 36.5758 -111.3689 171° South 256 295 20,000  Level Denver Center
Thu 02:56:20 PM 36.5203 -111.3558 169° South 257 296 20,000  Level Denver Center
Thu 02:57:23 PM 36.4378 -111.3386 170° South 252 290 20,000  Level Denver Center
Thu 02:58:25 PM 36.3692 -111.3233 170° South 251 289 20,000  Level Denver Center
Thu 02:59:26 PM 36.3028 -111.3092 170° South 245 282 20,000  Level Denver Center
Thu 03:00:28 PM 36.2253 -111.2928 170° South 237 273 20,000  Level Denver Center
Thu 03:01:30 PM 36.1725 -111.2808 170° South 239 275 20,000  Level Denver Center
Thu 03:02:32 PM 36.0900 -111.2617 169° South 247 284 20,000  Level Denver Center
Thu 03:03:34 PM 36.0733 -111.1572 101° East 293 337 20,000  Level Denver Center
Thu 03:04:36 PM 36.0308 -111.0928 129° Southeast 290 334 20,000  Level Denver Center
Thu 03:05:37 PM 36.0239 -111.1606 263° West 274 315 20,000  Level Denver Center
Thu 03:06:39 PM 36.0844 -111.2236 320° Northwest 285 328 20,000  Level Denver Center
Thu 03:07:41 PM 36.1697 -111.2756 334° Northwest 287 330 20,000  Level Denver Center
Thu 03:08:43 PM 36.2528 -111.2961 349° North 299 344 20,000  Level Denver Center
Thu 03:09:45 PM 36.3347 -111.3128 351° North 300 345 20,000  Level Denver Center
Thu 03:10:47 PM 36.4139 -111.3328 349° North 295 339 20,000  Level Denver Center
Thu 03:11:48 PM 36.4956 -111.3497 351° North 296 341 20,000  Level Denver Center
Thu 03:12:50 PM 36.5783 -111.3697 349° North 302 348 20,000  Level Denver Center
Thu 03:13:52 PM 36.6800 -111.3917 350° North 306 352 20,000  Level Denver Center
Thu 03:14:54 PM 36.7664 -111.4114 350° North 311 358 20,000  Level Denver Center
Thu 03:16:08 PM 36.8561 -111.4297 351° North 322 371 20,000  Level Denver Center
Thu 03:17:10 PM 36.9611 -111.4464 353° North 320 368 20,000 242 Level Denver Center
Thu 03:18:12 PM 37.0161 -111.3525 54° Northeast 351 404 20,500 629 Climbing Denver Center
Thu 03:19:14 PM 37.0428 -111.2214 76° East 387 445 21,300 968 Climbing Denver Center
Thu 03:20:16 PM 37.0792 -111.0511 75° East 424 488 22,500 1,016 Climbing Denver Center
Thu 03:21:18 PM 37.1114 -110.9003 75° East 448 516 23,400 1,016 Climbing Denver Center
Thu 03:22:20 PM 37.1439 -110.7458 75° East 460 529 24,600 1,268 Climbing Denver Center
Thu 03:23:21 PM 37.1769 -110.5903 75° East 463 533 26,000 1,268 Climbing Denver Center
Thu 03:24:23 PM 37.2097 -110.4333 75° East 466 536 27,200 1,065 Climbing Denver Center
Thu 03:25:25 PM 37.2431 -110.2747 75° East 471 542 28,200 1,016 Climbing Denver Center
Thu 03:26:27 PM 37.2803 -110.0936 75° East 482 555 29,300 1,210 Climbing Denver Center
Thu 03:27:29 PM 37.3183 -109.9067 76° East 493 567 30,700 1,258 Climbing Denver Center
Thu 03:28:31 PM 37.3506 -109.7469 76° East 492 566 31,900 1,161 Climbing Denver Center
Thu 03:29:33 PM 37.3833 -109.5883 75° East 489 563 33,100 1,147 Climbing Denver Center
Thu 03:30:47 PM 37.4197 -109.4056 76° East 484 557 34,500 1,324 Climbing Denver Center
Thu 03:31:49 PM 37.4603 -109.2000 76° East 475 547 36,100 1,210 Climbing Denver Center
Thu 03:32:51 PM 37.4897 -109.0494 76° East 467 537 37,000 435 Climbing Denver Center
Thu 03:33:53 PM 37.5247 -108.8711 76° East 468 539 37,000  Level Denver Center
Thu 03:34:55 PM 37.5553 -108.7083 77° East 488 562 37,000  Level Denver Center
Thu 03:35:57 PM 37.5856 -108.5489 76° East 489 563 37,000  Level Denver Center
Thu 03:36:59 PM 37.6214 -108.3603 76° East 492 566 37,000  Level Denver Center
Thu 03:38:01 PM 37.6525 -108.2000 76° East 492 566 37,000  Level Denver Center
Thu 03:39:03 PM 37.6875 -108.0097 77° East 495 570 37,000  Level Denver Center
Thu 03:40:05 PM 37.7181 -107.8464 77° East 499 574 37,000  Level Denver Center
Thu 03:41:07 PM 37.7522 -107.6561 77° East 497 572 37,000  Level Denver Center
Thu 03:42:09 PM 37.7828 -107.4944 77° East 494 568 37,000  Level Denver Center
Thu 03:43:11 PM 37.8161 -107.3044 77° East 495 570 37,000  Level Denver Center
Thu 03:44:13 PM 37.8475 -107.1306 77° East 492 566 37,000 48 Level Denver Center
Thu 03:45:15 PM 37.8756 -106.9697 77° East 492 566 37,100  Climbing Denver Center
Thu 03:46:17 PM 37.9083 -106.7811 78° East 491 565 37,000 -48 Descending Denver Center
Thu 03:47:19 PM 37.9372 -106.6197 77° East 492 566 37,000  Level Denver Center
Thu 03:48:21 PM 37.9667 -106.4417 78° East 491 565 37,000 48 Level Denver Center
Thu 03:49:23 PM 37.9947 -106.2800 78° East 491 565 37,100  Climbing Denver Center
Thu 03:50:25 PM 38.0261 -106.0900 78° East 494 568 37,000 -48 Descending Denver Center
Thu 03:51:27 PM 38.0536 -105.9275 78° East 493 567 37,000  Level Denver Center
Thu 03:52:29 PM 38.0842 -105.7375 78° East 492 566 37,000 48 Level Denver Center
Thu 03:53:31 PM 38.1119 -105.5733 78° East 495 570 37,100 48 Climbing Denver Center
Thu 03:54:33 PM 38.1436 -105.3817 78° East 496 571 37,100 -48 Level Denver Center
Thu 03:55:35 PM 38.1689 -105.2211 79° East 486 559 37,000  Descending Denver Center
Thu 03:56:37 PM 38.2003 -105.0344 78° East 483 556 37,100  Climbing Denver Center
Thu 03:57:39 PM 38.2639 -104.8881 61° Northeast 488 562 37,000 -48 Descending Denver Center
Thu 03:58:41 PM 38.3389 -104.7214 60° Northeast 495 570 37,000  Level Denver Center
Thu 03:59:43 PM 38.4025 -104.5644 63° Northeast 497 572 37,000  Level Denver Center
Thu 04:00:45 PM 38.4689 -104.4092 61° Northeast 496 571 37,000  Level Denver Center
Thu 04:01:48 PM 38.5353 -104.2511 62° Northeast 501 577 37,000  Level Denver Center
Thu 04:02:50 PM 38.6131 -104.1019 56° Northeast 494 568 37,000  Level Denver Center
Thu 04:03:52 PM 38.7125 -103.9483 50° Northeast 499 574 37,000  Level Denver Center
Thu 04:04:54 PM 38.7919 -103.8122 53° Northeast 498 573 37,000  Level Denver Center
Thu 04:05:56 PM 38.8486 -103.6294 68° East 500 575 37,000  Level Denver Center
Thu 04:06:58 PM 38.8706 -103.4592 81° East 497 572 37,000  Level Denver Center
Thu 04:08:00 PM 38.8922 -103.2864 81° East 491 565 37,000  Level Denver Center
Thu 04:09:02 PM 38.9156 -103.1128 80° East 490 564 37,000  Level Denver Center
Thu 04:10:04 PM 38.9381 -102.9397 80° East 490 564 37,000  Level Denver Center
Thu 04:11:06 PM 38.9600 -102.7656 81° East 489 563 37,000  Level Denver Center
Thu 04:12:20 PM 38.9822 -102.5836 81° East 489 563 37,000  Level Denver Center
Thu 04:13:23 PM 39.0103 -102.3617 81° East 492 566 37,000  Level Denver Center
Thu 04:14:25 PM 39.0342 -102.1683 81° East 492 566 37,000  Level Denver Center
Thu 04:15:27 PM 39.0550 -102.0025 81° East 492 566 37,000  Level Denver Center
Thu 04:16:29 PM 39.0747 -101.8356 81° East 492 566 37,000  Level Denver Center
Thu 04:17:30 PM 39.0950 -101.6686 81° East 490 564 37,000  Level Denver Center
Thu 04:18:33 PM 39.1186 -101.4756 81° East 490 564 37,000  Level Denver Center
Thu 04:19:35 PM 39.1406 -101.2814 82° East 490 564 37,000  Level Denver Center
Thu 04:20:37 PM 39.1592 -101.1139 82° East 493 567 37,000  Level Denver Center
Thu 04:21:39 PM 39.1819 -100.9194 81° East 494 568 37,000  Level Denver Center
Thu 04:22:41 PM 39.1997 -100.7539 82° East 491 565 37,000  Level Denver Center
Thu 04:23:43 PM 39.2211 -100.5589 82° East 492 566 37,000  Level Denver Center
Thu 04:24:45 PM 39.2397 -100.3917 82° East 493 567 37,000  Level Denver Center
Thu 04:25:47 PM 39.2603 -100.1958 82° East 495 570 37,000  Level Denver Center
Thu 04:26:49 PM 39.2878 -100.0306 78° East 494 568 37,000  Level Denver Center
Thu 04:27:51 PM 39.3192 -99.8378 78° East 493 567 37,000  Level Denver Center
Thu 04:28:53 PM 39.3442 -99.6692 79° East 498 573 37,000  Level Denver Center
Thu 04:29:56 PM 39.3739 -99.4764 79° East 496 571 37,000  Level Denver Center
Thu 04:32:12 PM 39.4311 -99.0850 79° East 499 574 37,000  Level Denver Center
Thu 04:33:14 PM 39.4597 -98.8947 79° East 496 571 37,000  Level Denver Center
Thu 04:34:16 PM 39.4844 -98.7186 80° East 498 573 37,000  Level Denver Center
Thu 04:35:18 PM 39.5089 -98.5422 80° East 499 574 37,000  Level Denver Center
Thu 04:36:20 PM 39.5344 -98.3664 79° East 500 575 37,000  Level Denver Center
Thu 04:38:03 PM 39.5769 -98.0592 80° East 498 573 37,000  Level Kansas City Center
Thu 04:39:04 PM 39.6028 -97.8739 80° East 502 578 37,000  Level Kansas City Center
Thu 04:40:07 PM 39.6244 -97.7081 80° East 497 572 37,000  Level Kansas City Center
Thu 04:40:42 PM 39.6372 -97.6100 80° East 498 573 37,000  Level Minneapolis Center
Thu 04:41:44 PM 39.6642 -97.3975 81° East 498 573 37,000  Level Minneapolis Center
Thu 04:42:46 PM 39.6872 -97.2189 80° East 502 578 37,000  Level Minneapolis Center
Thu 04:43:24 PM 39.7017 -97.1122 80° East 502 578 37,000  Level Minneapolis Center
Thu 04:44:15 PM 39.7211 -96.9600 81° East 503 579 37,000  Level Kansas City Center
Thu 04:45:16 PM 39.7442 -96.7728 81° East 503 579 37,000  Level Kansas City Center
Thu 04:46:19 PM 39.7678 -96.5850 81° East 502 578 37,000  Level Kansas City Center
Thu 04:47:20 PM 39.7903 -96.3972 81° East 502 578 37,000  Level Kansas City Center
Thu 04:48:23 PM 39.8128 -96.2086 81° East 504 580 37,000  Level Kansas City Center
Thu 04:49:27 PM 39.8344 -96.0364 81° East 502 578 37,000 -144 Level Kansas City Center
Thu 04:50:28 PM 39.8547 -95.8633 81° East 502 578 36,700 -590 Descending Kansas City Center
Thu 04:51:29 PM 39.8847 -95.6664 79° East 495 570 35,800 -857 Descending Kansas City Center
Thu 04:51:52 PM 39.8986 -95.6153 70° East 492 566 35,500 -907 Descending Minneapolis Center
Thu 04:52:55 PM 39.9483 -95.4492 69° East 491 565 34,500 -1,069 Descending Minneapolis Center
Thu 04:53:33 PM 39.9822 -95.3192 71° East 489 563 33,700 -1,000 Descending Kansas City Center
Thu 04:54:37 PM 40.0236 -95.1564 72° East 491 565 32,800 -1,008 Descending Kansas City Center
Thu 04:55:38 PM 40.0767 -94.9692 70° East 491 565 31,600 -1,082 Descending Kansas City Center
Thu 04:56:39 PM 40.1189 -94.8078 71° East 490 564 30,600 -988 Descending Kansas City Center
Thu 04:57:03 PM 40.1353 -94.7461 71° East 489 563 30,200 -977 Descending Minneapolis Center
Thu 04:58:05 PM 40.1817 -94.5814 70° East 487 560 29,200 -968 Descending Minneapolis Center
Thu 04:59:07 PM 40.2256 -94.4111 71° East 490 564 28,200 -990 Descending Minneapolis Center
Thu 04:59:48 PM 40.2569 -94.3008 70° East 488 562 27,500 -1,129 Descending Kansas City Center
Thu 05:00:48 PM 40.3097 -94.1200 69° East 482 555 26,300 -1,220 Descending Kansas City Center
Thu 05:01:51 PM 40.3553 -93.9644 69° East 470 541 25,000 -1,341 Descending Kansas City Center
Thu 05:02:13 PM 40.3761 -93.9078 64° Northeast 463 533 24,400 -1,500 Descending Minneapolis Center
Thu 05:03:15 PM 40.4219 -93.7717 66° East 437 503 22,900 -1,403 Descending Minneapolis Center
Thu 05:04:17 PM 40.4625 -93.6397 68° East 413 475 21,500 -919 Descending Minneapolis Center
Thu 05:05:19 PM 40.4878 -93.4867 78° East 384 442 21,000 -221 Descending Minneapolis Center
Thu 05:06:33 PM 40.4978 -93.3694 84° East 330 380 21,000  Level Minneapolis Center
Thu 05:07:00 PM 40.5006 -93.3006 87° East 320 368 21,000  Level Kansas City Center
Thu 05:08:03 PM 40.5056 -93.1844 87° East 320 368 21,000  Level Kansas City Center
Thu 05:09:04 PM 40.5067 -93.0694 89° East 318 366 21,000  Level Kansas City Center
Thu 05:10:06 PM 40.5075 -92.9375 89° East 325 374 21,000  Level Kansas City Center
Thu 05:11:10 PM 40.5097 -92.8258 88° East 322 371 21,000  Level Kansas City Center
Thu 05:12:11 PM 40.4758 -92.7067 110° East 320 368 21,000  Level Kansas City Center
Thu 05:13:11 PM 40.3961 -92.6539 153° Southeast 328 377 21,000  Level Kansas City Center
Thu 05:14:15 PM 40.3133 -92.6308 168° South 305 351 21,000  Level Kansas City Center
Thu 05:15:15 PM 40.2367 -92.6125 170° South 299 344 21,000  Level Kansas City Center
Thu 05:16:19 PM 40.1411 -92.5881 169° South 303 349 21,000  Level Kansas City Center
Thu 05:17:19 PM 40.0536 -92.5656 169° South 302 348 21,000  Level Kansas City Center
Thu 05:18:23 PM 39.9806 -92.5475 169° South 302 348 21,000  Level Kansas City Center
Thu 05:19:26 PM 39.8975 -92.5278 170° South 303 349 21,000  Level Kansas City Center
Thu 05:20:27 PM 39.7983 -92.5036 169° South 304 350 21,000  Level Kansas City Center
Thu 05:21:28 PM 39.7136 -92.4836 170° South 307 353 21,000  Level Kansas City Center
Thu 05:22:32 PM 39.6300 -92.4642 170° South 307 353 21,000  Level Kansas City Center
Thu 05:23:33 PM 39.5464 -92.4447 170° South 307 353 21,000  Level Kansas City Center
Thu 05:24:34 PM 39.4619 -92.4247 170° South 308 354 21,000 -290 Level Kansas City Center
Thu 05:25:37 PM 39.3769 -92.4589 197° South 287 330 20,400 -1,016 Descending Kansas City Center
Thu 05:26:38 PM 39.3194 -92.5328 225° Southwest 299 344 18,900 -1,258 Descending Kansas City Center
Thu 05:27:41 PM 39.2481 -92.4786 150° Southeast 311 358 17,800 -1,355 Descending Kansas City Center
Thu 05:28:42 PM 39.2839 -92.3842 64° Northeast 326 375 16,100 -871 Descending Kansas City Center
Thu 05:29:45 PM 39.3542 -92.3983 351° North 280 322 16,000 -48 Descending Kansas City Center
Thu 05:30:48 PM 39.4294 -92.4175 349° North 244 281 16,000  Level Kansas City Center
Thu 05:31:49 PM 39.4950 -92.4336 349° North 239 275 16,000  Level Kansas City Center
Thu 05:32:50 PM 39.5633 -92.4494 350° North 248 285 16,000  Level Kansas City Center
Thu 05:33:54 PM 39.6314 -92.4647 350° North 249 287 16,000  Level Kansas City Center
Thu 05:34:55 PM 39.6967 -92.4806 349° North 243 280 16,000  Level Kansas City Center
Thu 05:35:58 PM 39.7619 -92.4956 350° North 240 276 16,000 48 Level Kansas City Center
Thu 05:36:59 PM 39.8375 -92.5131 350° North 233 268 16,100 48 Climbing Kansas City Center
Thu 05:38:03 PM 39.9003 -92.5289 349° North 230 265 16,100  Level Kansas City Center
Thu 05:39:04 PM 39.9617 -92.5433 350° North 228 262 16,100  Level Kansas City Center
Thu 05:40:05 PM 40.0233 -92.5569 350° North 225 259 16,100  Level Kansas City Center
Thu 05:41:06 PM 40.0864 -92.5719 350° North 228 262 16,100  Level Kansas City Center
Thu 05:42:10 PM 40.1622 -92.5903 350° North 232 267 16,100  Level Kansas City Center
Thu 05:43:10 PM 40.2275 -92.6058 350° North 235 270 16,100  Level Kansas City Center
Thu 05:44:14 PM 40.2969 -92.6233 349° North 239 275 16,100  Level Kansas City Center
Thu 05:45:15 PM 40.3656 -92.6381 351° North 242 278 16,100 -48 Level Kansas City Center
Thu 05:46:19 PM 40.4211 -92.6744 333° Northwest 237 273 16,000 -726 Descending Kansas City Center
Thu 05:47:19 PM 40.4339 -92.7572 281° West 235 270 14,600 -1,377 Descending Kansas City Center
Thu 05:48:21 PM 40.4886 -92.7703 350° North 268 308 13,200 -1,536 Descending Kansas City Center
Thu 05:49:24 PM 40.4542 -92.6664 114° Southeast 287 330 11,400 -1,016 Descending Kansas City Center
Thu 05:50:25 PM 40.3853 -92.6469 168° South 259 298 11,100 -148 Descending Kansas City Center
Thu 05:51:26 PM 40.3214 -92.6308 169° South 243 280 11,100  Level Kansas City Center
Thu 05:52:30 PM 40.2578 -92.6156 170° South 243 280 11,100  Level Kansas City Center
Thu 05:53:31 PM 40.1750 -92.5944 169° South 253 291 11,100  Level Kansas City Center
Thu 05:54:35 PM 40.1086 -92.5797 170° South 249 287 11,100  Level Kansas City Center
Thu 05:55:35 PM 40.0497 -92.5653 169° South 231 266 11,100  Level Kansas City Center
Thu 05:56:39 PM 39.9961 -92.5536 171° South 206 237 11,100  Level Kansas City Center
Thu 05:57:40 PM 39.9314 -92.5367 169° South 233 268 11,100  Level Kansas City Center
Thu 05:58:42 PM 39.8506 -92.5169 169° South 246 283 11,100 -48 Level Kansas City Center
Thu 05:59:45 PM 39.7858 -92.5019 170° South 240 276 11,000 -48 Descending Kansas City Center
Thu 06:00:46 PM 39.7211 -92.4864 170° South 239 275 11,000  Level Kansas City Center
Thu 06:01:47 PM 39.6567 -92.4717 170° South 237 273 11,000  Level Kansas City Center
Thu 06:02:51 PM 39.5919 -92.4553 169° South 238 274 11,000  Level Kansas City Center
Thu 06:03:51 PM 39.5139 -92.4381 170° South 239 275 11,000 -48 Level Kansas City Center
Thu 06:04:55 PM 39.4478 -92.4219 169° South 241 277 10,900 -532 Descending Kansas City Center
Thu 06:05:55 PM 39.3806 -92.4156 176° South 243 280 9,900 -1,016 Descending Kansas City Center
Thu 06:06:59 PM 39.3656 -92.4919 256° West 228 262 8,800 -960 Descending Kansas City Center
Thu 06:08:00 PM 39.4081 -92.5453 316° Northwest 216 249 7,900 -1,082 Descending Kansas City Center
Thu 06:09:01 PM 39.4578 -92.5997 320° Northwest 201 231 6,600 -1,161 Descending Kansas City Center
Thu 06:10:04 PM 39.4978 -92.6400 322° Northwest 189 217 5,500 -1,016 Descending Kansas City Center
Thu 06:11:05 PM 39.5353 -92.6853 317° Northwest 184 212 4,500 -960 Descending Kansas City Center
Thu 06:12:09 PM 39.5711 -92.6617 27° Northeast 197 227 3,500 -816 Descending Kansas City Center
Thu 06:13:10 PM 39.5753 -92.6006 85° East 184 212 2,800 -480 Descending Kansas City Center
Thu 06:14:14 PM 39.5414 -92.5483 130° Southeast 166 191 2,500 -145 Descending Kansas City Center
Thu 06:15:14 PM 39.5147 -92.5061 129° Southeast 159 183 2,500 -339 Level Kansas City Center
Thu 06:16:18 PM 39.4864 -92.4611 129° Southeast 154 177 1,800 -34 Descending Kansas City Center
Thu 06:18:11 PM 39.4436 -92.3789 124° Southeast 198 228 2,400 583 Climbing Chicago Center
Thu 06:19:13 PM 39.4892 -92.3333 38° Northeast 248 285 3,500 1,258 Climbing Chicago Center
Thu 06:20:15 PM 39.5608 -92.3269 North 256 295 5,000 1,403 Climbing Chicago Center
Thu 06:21:17 PM 39.6300 -92.3011 16° North 257 296 6,400 1,344 Climbing Chicago Center
Thu 06:22:20 PM 39.7031 -92.2739 16° North 265 305 7,800 1,536 Climbing Chicago Center
Thu 06:23:22 PM 39.7903 -92.2425 15° North 271 312 9,600 1,500 Climbing Chicago Center
Thu 06:24:24 PM 39.8636 -92.2167 15° North 274 315 10,900 726 Climbing Chicago Center
Thu 06:25:26 PM 39.9439 -92.1869 16° North 293 337 11,100 97 Climbing Chicago Center
Thu 06:26:28 PM 40.0294 -92.1572 15° North 317 365 11,100  Level Chicago Center
Thu 06:27:30 PM 40.1289 -92.1214 15° North 314 361 11,100 -48 Level Chicago Center
Thu 06:28:32 PM 40.2103 -92.0925 15° North 309 356 11,000 -48 Descending Chicago Center
Thu 06:29:34 PM 40.2903 -92.0633 16° North 304 350 11,000  Level Chicago Center
Thu 06:30:36 PM 40.3697 -92.0339 16° North 302 348 11,000  Level Chicago Center
Thu 06:31:38 PM 40.4492 -92.0056 15° North 300 345 11,000  Level Chicago Center
Thu 06:32:41 PM 40.5450 -91.9706 16° North 300 345 11,000  Level Chicago Center
Thu 06:33:43 PM 40.6250 -91.9425 15° North 301 346 11,000  Level Chicago Center
Thu 06:34:45 PM 40.7044 -91.9119 16° North 300 345 11,000  Level Chicago Center
Thu 06:35:47 PM 40.7839 -91.8831 15° North 299 344 11,000  Level Chicago Center
Thu 06:36:49 PM 40.8803 -91.8483 15° North 301 346 11,000  Level Chicago Center
Thu 06:37:51 PM 40.9606 -91.8178 16° North 301 346 11,000  Level Chicago Center
Thu 06:38:53 PM 41.0408 -91.7889 15° North 302 348 11,000  Level Chicago Center
Thu 06:39:55 PM 41.1211 -91.7592 16° North 301 346 11,000  Level Chicago Center
Thu 06:40:57 PM 41.2011 -91.7303 15° North 300 345 11,000  Level Chicago Center
Thu 06:41:59 PM 41.2875 -91.6986 15° North 300 345 11,000  Level Chicago Center
Thu 06:43:02 PM 41.3672 -91.6678 16° North 301 346 11,000  Level Chicago Center
Thu 06:44:04 PM 41.4639 -91.6325 15° North 302 348 11,000 48 Level Chicago Center
Thu 06:45:06 PM 41.5417 -91.5986 18° North 298 343 11,100 48 Climbing Chicago Center
Thu 06:46:08 PM 41.6108 -91.5292 37° Northeast 308 354 11,100  Level Chicago Center
Thu 06:47:10 PM 41.6803 -91.4647 35° Northeast 307 353 11,100  Level Chicago Center
Thu 06:48:12 PM 41.7514 -91.4058 32° Northeast 304 350 11,100  Level Chicago Center
Thu 06:49:14 PM 41.8356 -91.3294 34° Northeast 307 353 11,100  Level Chicago Center
Thu 06:50:16 PM 41.9058 -91.2675 33° Northeast 306 352 11,100  Level Chicago Center
Thu 06:51:18 PM 41.9775 -91.2081 32° Northeast 306 352 11,100  Level Chicago Center
Thu 06:52:20 PM 42.0458 -91.1444 35° Northeast 302 348 11,100 -48 Level Chicago Center
Thu 06:53:22 PM 42.1167 -91.0811 34° Northeast 307 353 11,000 -48 Descending Chicago Center
Thu 06:54:24 PM 42.2011 -91.0108 32° Northeast 302 348 11,000  Level Chicago Center
Thu 06:55:26 PM 42.2672 -90.9483 35° Northeast 295 339 11,000  Level Chicago Center
Thu 06:56:28 PM 42.3358 -90.8903 32° Northeast 294 338 11,000  Level Chicago Center
Thu 06:57:30 PM 42.4039 -90.8306 33° Northeast 295 339 11,000  Level Chicago Center
Thu 06:58:32 PM 42.4689 -90.7692 35° Northeast 291 335 11,000  Level Chicago Center
Thu 06:59:34 PM 42.5489 -90.7019 32° Northeast 285 328 11,000  Level Chicago Center
Thu 07:00:36 PM 42.6139 -90.6419 34° Northeast 285 328 11,000  Level Chicago Center
Thu 07:01:38 PM 42.6778 -90.5828 34° Northeast 283 326 11,000  Level Chicago Center
Thu 07:02:40 PM 42.7433 -90.5261 32° Northeast 282 325 11,000  Level Chicago Center
Thu 07:03:42 PM 42.8081 -90.4658 34° Northeast 283 326 11,000  Level Chicago Center
Thu 07:04:44 PM 42.8867 -90.3981 32° Northeast 282 325 11,000  Level Chicago Center
Thu 07:05:46 PM 42.9508 -90.3375 35° Northeast 282 325 11,000  Level Chicago Center
Thu 07:06:48 PM 43.0142 -90.2819 33° Northeast 276 318 11,000  Level Chicago Center
Thu 07:07:50 PM 43.0778 -90.2225 34° Northeast 278 320 11,000  Level Chicago Center
Thu 07:08:52 PM 43.1522 -90.1519 35° Northeast 277 319 11,000  Level Chicago Center
Thu 07:09:54 PM 43.2167 -90.0956 33° Northeast 275 316 11,000  Level Chicago Center
Thu 07:10:55 PM 43.2797 -90.0350 35° Northeast 276 318 11,000  Level Chicago Center
Thu 07:11:57 PM 43.3467 -89.9794 31° Northeast 277 319 11,000  Level Chicago Center
Thu 07:12:59 PM 43.4086 -89.9208 34° Northeast 273 314 11,000  Level Chicago Center
Thu 07:14:01 PM 43.4733 -89.8636 33° Northeast 274 315 11,000  Level Chicago Center
Thu 07:15:03 PM 43.5478 -89.7978 33° Northeast 273 314 11,000 97 Level Chicago Center
Thu 07:16:05 PM 43.6158 -89.7294 36° Northeast 308 354 11,200 1,645 Climbing Chicago Center
Thu 07:17:07 PM 43.6642 -89.6058 62° Northeast 364 419 14,400 3,048 Climbing Chicago Center
Thu 07:18:09 PM 43.7175 -89.4944 56° Northeast 352 405 17,500 2,314 Climbing Chicago Center
Thu 07:19:27 PM 43.8189 -89.5081 354° North 323 372 19,800 1,971 Climbing Minneapolis Center
Thu 07:20:29 PM 43.8256 -89.6317 274° West 342 394 22,100 2,352 Climbing Minneapolis Center
Thu 07:21:32 PM 43.7089 -89.6931 201° Southwest 419 482 24,700 2,467 Climbing Minneapolis Center
Thu 07:22:16 PM 43.6106 -89.7039 185° South 431 496 26,500 2,094 Climbing Chicago Center
Thu 07:23:18 PM 43.5247 -89.7919 217° Southwest 391 450 28,400 1,742 Climbing Chicago Center
Thu 07:24:20 PM 43.4317 -89.8772 214° Southwest 400 460 30,100 1,630 Climbing Chicago Center
Thu 07:24:50 PM 43.3858 -89.9192 214° Southwest 399 459 30,900 1,548 Climbing Minneapolis Center
Thu 07:25:22 PM 43.3381 -89.9628 214° Southwest 404 465 31,700 1,404 Climbing Chicago Center
Thu 07:26:24 PM 43.2439 -90.0533 215° Southwest 412 474 33,100 1,463 Climbing Chicago Center
Thu 07:27:25 PM 43.1311 -90.1578 214° Southwest 419 482 34,700 1,561 Climbing Chicago Center
Thu 07:28:27 PM 43.0378 -90.2450 214° Southwest 421 484 36,300 1,548 Climbing Chicago Center
Thu 07:29:29 PM 42.9439 -90.3322 214° Southwest 413 475 37,900 823 Climbing Chicago Center
Thu 07:30:31 PM 42.8486 -90.4197 214° Southwest 414 476 38,000 48 Climbing Chicago Center
Thu 07:31:33 PM 42.7547 -90.5067 214° Southwest 411 473 38,000  Level Chicago Center
Thu 07:32:35 PM 42.6439 -90.6078 214° Southwest 402 463 38,000  Level Chicago Center
Thu 07:33:37 PM 42.5531 -90.6914 214° Southwest 396 456 38,000  Level Chicago Center
Thu 07:34:39 PM 42.4614 -90.7750 214° Southwest 391 450 38,000  Level Chicago Center
Thu 07:35:41 PM 42.3697 -90.8561 213° Southwest 400 460 38,000  Level Chicago Center
Thu 07:36:43 PM 42.2775 -90.9400 214° Southwest 400 460 38,000  Level Chicago Center
Thu 07:37:45 PM 42.1836 -91.0250 214° Southwest 406 467 38,000  Level Chicago Center
Thu 07:38:47 PM 42.0914 -91.1075 214° Southwest 402 463 38,000  Level Chicago Center
Thu 07:39:49 PM 41.9800 -91.2078 214° Southwest 402 463 38,000  Level Chicago Center
Thu 07:40:51 PM 41.8858 -91.2892 213° Southwest 403 464 38,000  Level Chicago Center
Thu 07:41:53 PM 41.7936 -91.3722 214° Southwest 402 463 38,000  Level Chicago Center
Thu 07:42:55 PM 41.7000 -91.4547 213° Southwest 404 465 38,000  Level Chicago Center
Thu 07:43:57 PM 41.6033 -91.5389 213° Southwest 415 478 38,000 290 Level Chicago Center
Thu 07:44:59 PM 41.5022 -91.6608 222° Southwest 399 459 38,600 629 Climbing Chicago Center
Thu 07:46:01 PM 41.4675 -91.7967 251° West 385 443 39,300 677 Climbing Chicago Center
Thu 07:47:03 PM 41.4506 -91.9381 261° West 385 443 40,000 339 Climbing Chicago Center
Thu 07:48:05 PM 41.4325 -92.0781 260° West 387 445 40,000  Level Chicago Center
Thu 07:49:07 PM 41.4131 -92.2233 260° West 397 457 40,000  Level Chicago Center
Thu 07:50:09 PM 41.3914 -92.3869 260° West 397 457 40,000  Level Chicago Center
Thu 07:51:11 PM 41.3711 -92.5317 259° West 400 460 40,000  Level Chicago Center
Thu 07:52:13 PM 41.3517 -92.6742 260° West 397 457 40,000  Level Chicago Center
Thu 07:52:29 PM 41.3483 -92.7044 262° West 397 457 40,000  Level Minneapolis Center
Thu 07:53:30 PM 41.3239 -92.8775 259° West 399 459 40,000  Level Minneapolis Center
Thu 07:54:32 PM 41.3053 -93.0186 260° West 395 455 40,000  Level Minneapolis Center
Thu 07:55:34 PM 41.2847 -93.1592 259° West 391 450 40,000  Level Minneapolis Center
Thu 07:56:36 PM 41.2650 -93.2989 259° West 390 449 40,000  Level Minneapolis Center
Thu 07:57:37 PM 41.2444 -93.4389 259° West 390 449 40,000  Level Minneapolis Center
Thu 07:58:39 PM 41.2225 -93.6011 260° West 378 435 40,000  Level Minneapolis Center
Thu 07:59:41 PM 41.2003 -93.7444 258° West 386 444 40,000  Level Minneapolis Center
Thu 08:00:42 PM 41.1778 -93.8869 258° West 393 452 40,000  Level Minneapolis Center
Thu 08:01:44 PM 41.1572 -94.0253 259° West 392 451 40,000  Level Minneapolis Center
Thu 08:02:46 PM 41.1378 -94.1653 260° West 389 448 40,000  Level Minneapolis Center
Thu 08:03:48 PM 41.1186 -94.3014 259° West 386 444 40,000  Level Minneapolis Center
Thu 08:04:49 PM 41.0922 -94.4700 258° West 391 450 40,000  Level Minneapolis Center
Thu 08:05:51 PM 41.0686 -94.6181 258° West 395 455 40,000  Level Minneapolis Center
Thu 08:06:53 PM 41.0458 -94.7581 258° West 392 451 40,000  Level Minneapolis Center
Thu 08:07:54 PM 41.0250 -94.8989 259° West 391 450 40,000  Level Minneapolis Center
Thu 08:08:56 PM 41.0022 -95.0406 258° West 392 451 40,000  Level Minneapolis Center
Thu 08:09:58 PM 40.9789 -95.1836 258° West 395 455 40,000  Level Minneapolis Center
Thu 08:10:59 PM 40.9572 -95.3244 259° West 392 451 40,000  Level Minneapolis Center
Thu 08:12:01 PM 40.9336 -95.4653 258° West 391 450 40,000  Level Minneapolis Center
Thu 08:13:03 PM 40.9106 -95.6061 258° West 391 450 40,000  Level Minneapolis Center
Thu 08:14:04 PM 40.8828 -95.7744 258° West 390 449 40,000  Level Minneapolis Center
Thu 08:15:06 PM 40.8592 -95.9156 258° West 391 450 40,000  Level Minneapolis Center
Thu 08:16:08 PM 40.8347 -96.0575 257° West 393 452 40,000  Level Minneapolis Center
Thu 08:17:09 PM 40.8108 -96.2003 258° West 395 455 40,000  Level Minneapolis Center
Thu 08:18:11 PM 40.7869 -96.3428 258° West 395 455 40,000  Level Minneapolis Center
Thu 08:19:13 PM 40.7628 -96.4853 257° West 397 457 40,000  Level Minneapolis Center
Thu 08:20:14 PM 40.7381 -96.6283 257° West 399 459 40,000  Level Minneapolis Center
Thu 08:21:16 PM 40.7128 -96.7714 257° West 399 459 40,000  Level Minneapolis Center
Thu 08:22:18 PM 40.6875 -96.9147 257° West 401 461 40,000  Level Minneapolis Center
Thu 08:23:19 PM 40.6617 -97.0594 257° West 404 465 40,000  Level Minneapolis Center
Thu 08:24:21 PM 40.6308 -97.2314 257° West 403 464 40,000  Level Minneapolis Center
Thu 08:25:22 PM 40.6056 -97.3694 256° West 403 464 40,000  Level Minneapolis Center
Thu 08:26:24 PM 40.5789 -97.5147 256° West 406 467 40,000  Level Minneapolis Center
Thu 08:27:26 PM 40.5531 -97.6578 257° West 403 464 40,000  Level Minneapolis Center
Thu 08:28:27 PM 40.5267 -97.8025 257° West 405 466 40,000  Level Minneapolis Center
Thu 08:29:29 PM 40.4992 -97.9461 256° West 405 466 40,000  Level Minneapolis Center
Thu 08:30:31 PM 40.4728 -98.0914 257° West 406 467 40,000  Level Minneapolis Center
Thu 08:31:32 PM 40.4397 -98.2658 256° West 408 470 40,000  Level Minneapolis Center
Thu 08:32:34 PM 40.4119 -98.4108 256° West 408 470 40,000  Level Minneapolis Center
Thu 08:33:36 PM 40.3839 -98.5567 256° West 409 471 40,000  Level Minneapolis Center
Thu 08:34:38 PM 40.3550 -98.7036 256° West 411 473 40,000  Level Minneapolis Center
Thu 08:35:39 PM 40.3272 -98.8497 256° West 412 474 40,000  Level Minneapolis Center
Thu 08:36:03 PM 40.3156 -98.9067 255° West 409 471 40,000  Level Denver Center
Thu 08:37:05 PM 40.2869 -99.0539 256° West 412 474 40,000  Level Denver Center
Thu 08:38:07 PM 40.2581 -99.1983 255° West 410 472 40,000  Level Denver Center
Thu 08:39:09 PM 40.2289 -99.3439 255° West 411 473 40,000  Level Denver Center
Thu 08:40:11 PM 40.2000 -99.4903 256° West 414 476 40,000  Level Denver Center
Thu 08:41:12 PM 40.1647 -99.6628 255° West 410 472 40,000  Level Denver Center
Thu 08:42:14 PM 40.1350 -99.8081 255° West 413 475 40,000  Level Denver Center
Thu 08:43:16 PM 40.1036 -99.9592 255° West 414 476 40,000  Level Denver Center
Thu 08:44:18 PM 40.0750 -100.0967 255° West 410 472 40,000  Level Denver Center
Thu 08:45:20 PM 40.0417 -100.2586 255° West 412 474 40,000  Level Denver Center
Thu 08:46:22 PM 40.0122 -100.3981 255° West 414 476 40,000  Level Denver Center
Thu 08:47:23 PM 39.9881 -100.5133 255° West 412 474 40,000  Level Denver Center
Thu 08:48:25 PM 39.9478 -100.6989 254° West 416 479 40,000  Level Denver Center
Thu 08:49:27 PM 39.9178 -100.8386 254° West 418 481 40,000  Level Denver Center
Thu 08:50:29 PM 39.8825 -101.0019 254° West 419 482 40,000  Level Denver Center
Thu 08:51:31 PM 39.8519 -101.1422 254° West 420 483 40,000  Level Denver Center
Thu 08:52:33 PM 39.8161 -101.3078 254° West 424 488 40,000  Level Denver Center
Thu 08:53:34 PM 39.7847 -101.4481 254° West 423 487 40,000  Level Denver Center
Thu 08:54:36 PM 39.7542 -101.5883 254° West 422 486 40,000  Level Denver Center
Thu 08:55:38 PM 39.7172 -101.7519 254° West 422 486 40,000  Level Denver Center
Thu 08:56:40 PM 39.6858 -101.8928 254° West 423 487 40,000  Level Denver Center
Thu 08:57:42 PM 39.6492 -102.0564 254° West 424 488 40,000  Level Denver Center
Thu 08:58:44 PM 39.6172 -102.1944 253° West 420 483 40,000  Level Denver Center
Thu 08:59:45 PM 39.5808 -102.3597 254° West 426 490 40,000  Level Denver Center
Thu 09:00:47 PM 39.5481 -102.4975 253° West 426 490 40,000  Level Denver Center
Thu 09:01:49 PM 39.5125 -102.6458 253° West 428 493 40,000  Level Denver Center
Thu 09:02:51 PM 39.4803 -102.7925 254° West 420 483 40,000  Level Denver Center
Thu 09:03:53 PM 39.4450 -102.9381 253° West 418 481 40,000  Level Denver Center
Thu 09:04:54 PM 39.4156 -103.0583 252° West 418 481 40,000  Level Denver Center
Thu 09:05:56 PM 39.3697 -103.2514 253° West 417 480 40,000  Level Denver Center
Thu 09:06:58 PM 39.3350 -103.3972 253° West 422 486 40,000  Level Denver Center
Thu 09:08:00 PM 39.3000 -103.5422 253° West 420 483 40,000  Level Denver Center
Thu 09:09:02 PM 39.2636 -103.6906 252° West 427 491 40,000  Level Denver Center
Thu 09:10:04 PM 39.2275 -103.8375 252° West 427 491 40,000  Level Denver Center
Thu 09:11:06 PM 39.1925 -103.9839 253° West 423 487 40,000  Level Denver Center
Thu 09:12:07 PM 39.1558 -104.1317 252° West 427 491 40,000  Level Denver Center
Thu 09:13:09 PM 39.1197 -104.2767 252° West 421 484 40,000  Level Denver Center
Thu 09:14:11 PM 39.0772 -104.4472 252° West 422 486 40,000  Level Denver Center
Thu 09:15:13 PM 39.0394 -104.5942 252° West 426 490 40,000  Level Denver Center
Thu 09:16:15 PM 39.0025 -104.7369 252° West 416 479 40,000  Level Denver Center
Thu 09:17:17 PM 38.9669 -104.8806 252° West 416 479 40,000 -48 Level Denver Center
Thu 09:18:19 PM 38.9308 -105.0208 252° West 410 472 39,900  Descending Denver Center
Thu 09:19:21 PM 38.8947 -105.1617 252° West 411 473 40,000 48 Climbing Denver Center
Thu 09:20:23 PM 38.8564 -105.3022 251° West 413 475 40,000  Level Denver Center
Thu 09:21:25 PM 38.8208 -105.4436 252° West 414 476 40,000  Level Denver Center
Thu 09:22:27 PM 38.7833 -105.5836 251° West 410 472 40,000  Level Denver Center
Thu 09:23:29 PM 38.7458 -105.7258 251° West 416 479 40,000  Level Denver Center
Thu 09:24:31 PM 38.7025 -105.8903 251° West 414 476 40,000  Level Denver Center
Thu 09:25:33 PM 38.6650 -106.0308 251° West 414 476 40,000  Level Denver Center
Thu 09:26:35 PM 38.6275 -106.1708 251° West 413 475 40,000  Level Denver Center
Thu 09:27:37 PM 38.5914 -106.3011 251° West 412 474 40,000  Level Denver Center
Thu 09:28:39 PM 38.5536 -106.4411 251° West 413 475 40,000  Level Denver Center
Thu 09:29:41 PM 38.5150 -106.5803 251° West 414 476 40,000  Level Denver Center
Thu 09:30:43 PM 38.4697 -106.7458 251° West 411 473 40,000  Level Denver Center
Thu 09:31:45 PM 38.4308 -106.8847 250° West 415 478 40,000  Level Denver Center
Thu 09:32:47 PM 38.3922 -107.0233 250° West 413 475 40,000  Level Denver Center
Thu 09:33:49 PM 38.3542 -107.1639 251° West 415 478 40,000  Level Denver Center
Thu 09:34:51 PM 38.3108 -107.3153 250° West 418 481 40,000  Level Denver Center
Thu 09:35:53 PM 38.2728 -107.4497 250° West 421 484 40,000  Level Denver Center
Thu 09:36:55 PM 38.2292 -107.6042 250° West 417 480 40,000  Level Denver Center
Thu 09:37:57 PM 38.1917 -107.7361 250° West 415 478 40,000  Level Denver Center
Thu 09:38:59 PM 38.1469 -107.8908 250° West 417 480 40,000  Level Denver Center
Thu 09:40:02 PM 38.1097 -108.0214 250° West 413 475 40,000  Level Denver Center
Thu 09:41:04 PM 38.0700 -108.1608 250° West 408 470 40,000  Level Denver Center
Thu 09:42:06 PM 38.0258 -108.3114 250° West 407 468 40,000  Level Denver Center
Thu 09:43:08 PM 37.9883 -108.4386 250° West 405 466 40,000  Level Denver Center
Thu 09:44:10 PM 37.9497 -108.5661 249° West 405 466 40,000  Level Denver Center
Thu 09:45:12 PM 37.9064 -108.7136 250° West 402 463 40,000  Level Denver Center
Thu 09:46:14 PM 37.8683 -108.8431 250° West 406 467 40,000  Level Denver Center
Thu 09:47:16 PM 37.8239 -108.9919 249° West 407 468 40,000  Level Denver Center
Thu 09:48:18 PM 37.7850 -109.1189 249° West 405 466 40,000  Level Denver Center
Thu 09:49:20 PM 37.7406 -109.2689 250° West 409 471 40,000  Level Denver Center
Thu 09:50:22 PM 37.7019 -109.3950 249° West 405 466 40,000  Level Denver Center
Thu 09:51:24 PM 37.6567 -109.5439 249° West 407 468 40,000  Level Denver Center
Thu 09:52:26 PM 37.6181 -109.6700 249° West 403 464 40,000  Level Denver Center
Thu 09:53:28 PM 37.5725 -109.8175 249° West 406 467 40,000 -48 Level Denver Center
Thu 09:54:30 PM 37.5331 -109.9447 249° West 408 470 39,900  Descending Denver Center
Thu 09:55:32 PM 37.4861 -110.0928 248° West 409 471 40,000 48 Climbing Denver Center
Thu 09:56:34 PM 37.4483 -110.2169 249° West 407 468 40,000  Level Denver Center
Thu 09:57:35 PM 37.4067 -110.3506 249° West 409 471 40,000  Level Denver Center
Thu 09:58:37 PM 37.3642 -110.4839 248° West 410 472 40,000  Level Denver Center
Thu 09:59:40 PM 37.3133 -110.6442 248° West 413 475 40,000  Level Denver Center
Thu 10:00:42 PM 37.2719 -110.7758 248° West 407 468 40,000  Level Denver Center
Thu 10:01:44 PM 37.2292 -110.9072 248° West 405 466 40,000 -48 Level Denver Center
Thu 10:02:46 PM 37.1867 -111.0400 248° West 409 471 39,900  Descending Denver Center
Thu 10:03:48 PM 37.1436 -111.1728 248° West 412 474 40,000 48 Climbing Denver Center
Thu 10:04:50 PM 37.1008 -111.3058 248° West 411 473 40,000  Level Denver Center
Thu 10:06:54 PM 37.0094 -111.5892 248° West 394 453 40,000  Level Denver Center
Thu 10:07:56 PM 36.9683 -111.7161 248° West 392 451 40,000  Level Denver Center
Thu 10:08:58 PM 36.9250 -111.8442 247° West 397 457 40,000  Level Denver Center
Thu 10:10:00 PM 36.8822 -111.9714 247° West 397 457 40,000  Level Denver Center
Thu 10:11:02 PM 36.8389 -112.0986 247° West 396 456 40,000  Level Denver Center
Thu 10:12:04 PM 36.7881 -112.2508 247° West 396 456 40,000  Level Denver Center

Login

Don't have an account? Register now (free) for customized features, flight alerts, and more!